Poole, Louisiana
Current Conditions -  °F | °C
As of 5:58 PM on Sunday 25 Jan 2015 (Local Time) from KBAD Reporting Station
Clear Clear  
Wind Chill: 59°   Ceiling: Unl
Heat Index: 59°   Visibility: 10mi
Dew Point: 29°   Wind: 15mph
Humidity: 33%   Direction: 310°NW
Pressure: 29.97"   Gusts: 24mph
Location:  32.3415°N, 93.4966°W
Report Text: KBAD 252358Z AUTO 31013G21KT 10SM CLR 15/M02 A2997 RMK AO2 PK WND 31028/39 SLP152 T01481016 10188 20148 52029
Loading
Personal Weather Stations






























Interactive Weather Map New forecast layout! Learn more

10-Day Weather Forecast

Advertisements
Track Severe Weather on mobile